N57WS LFOK-LFOK
Flight info
| Callsign | N57WS |
|---|---|
| Flight time | 0h 7m |
| Altitude | 11000 |
| Route | CVT DCT OK610 DCT OKVIG DCT OKBUK DCT FOK10 |
| Aircraft | L101/H-DFGHILORUVWXY/S |
Departure
| Time | 2026-05-06 20:23 |
|---|---|
| Airport | Chalons Vatry airport (LFOK) |
Arrival
| Time | 2026-05-06 20:30 |
|---|---|
| Airport | Chalons Vatry airport (LFOK) |
| Time | Latitude | Longitude | Altitude | Speed | Heading |
|---|---|---|---|---|---|
| 2026-05-06 19:28 | 48.77931 | 4.18797 | 585 ft | 0 kts | 19° |
| 2026-05-06 19:28 | 48.77931 | 4.18796 | 585 ft | 0 kts | 19° |
| 2026-05-06 19:28 | 48.77930 | 4.18796 | 585 ft | 0 kts | 19° |
| 2026-05-06 20:11 | 48.77895 | 4.18764 | 588 ft | 0 kts | 32° |
| 2026-05-06 20:11 | 48.77899 | 4.18771 | 588 ft | 2 kts | 51° |
| 2026-05-06 20:11 | 48.77898 | 4.18790 | 587 ft | 1 kts | 105° |
| 2026-05-06 20:12 | 48.77897 | 4.18791 | 587 ft | 0 kts | 117° |
| 2026-05-06 20:12 | 48.77891 | 4.18802 | 588 ft | 2 kts | 134° |
| 2026-05-06 20:12 | 48.77887 | 4.18802 | 588 ft | 0 kts | 162° |
| 2026-05-06 20:12 | 48.77885 | 4.18803 | 588 ft | 1 kts | 164° |
| 2026-05-06 20:13 | 48.77875 | 4.18802 | 589 ft | 2 kts | 191° |
| 2026-05-06 20:13 | 48.77864 | 4.18788 | 590 ft | 4 kts | 220° |
| 2026-05-06 20:13 | 48.77834 | 4.18756 | 591 ft | 7 kts | 201° |
| 2026-05-06 20:13 | 48.77784 | 4.18760 | 594 ft | 8 kts | 144° |
| 2026-05-06 20:14 | 48.77763 | 4.18852 | 596 ft | 11 kts | 102° |
| 2026-05-06 20:14 | 48.77745 | 4.18983 | 595 ft | 15 kts | 102° |
| 2026-05-06 20:14 | 48.77720 | 4.19161 | 594 ft | 19 kts | 102° |
| 2026-05-06 20:14 | 48.77690 | 4.19375 | 596 ft | 22 kts | 102° |
| 2026-05-06 20:15 | 48.77664 | 4.19607 | 600 ft | 22 kts | 101° |
| 2026-05-06 20:15 | 48.77633 | 4.19832 | 604 ft | 23 kts | 101° |
| 2026-05-06 20:15 | 48.77600 | 4.20083 | 620 ft | 24 kts | 101° |
| 2026-05-06 20:15 | 48.77566 | 4.20346 | 620 ft | 27 kts | 101° |
| 2026-05-06 20:16 | 48.77530 | 4.20623 | 611 ft | 21 kts | 101° |
| 2026-05-06 20:16 | 48.77500 | 4.20846 | 614 ft | 18 kts | 101° |
| 2026-05-06 20:16 | 48.77475 | 4.20993 | 624 ft | 14 kts | 125° |
| 2026-05-06 20:16 | 48.77396 | 4.21013 | 623 ft | 8 kts | 193° |
| 2026-05-06 20:17 | 48.77381 | 4.21008 | 610 ft | 0 kts | 193° |
| 2026-05-06 20:21 | 48.77375 | 4.21006 | 610 ft | 3 kts | 193° |
| 2026-05-06 20:22 | 48.77340 | 4.20994 | 623 ft | 5 kts | 193° |
| 2026-05-06 20:22 | 48.77298 | 4.20964 | 628 ft | 8 kts | 227° |
| 2026-05-06 20:22 | 48.77300 | 4.20877 | 626 ft | 11 kts | 279° |
| 2026-05-06 20:22 | 48.77354 | 4.20462 | 614 ft | 89 kts | 276° |
| 2026-05-06 20:23 | 48.77544 | 4.19039 | 733 ft | 173 kts | 284° |
| 2026-05-06 20:23 | 48.77782 | 4.17105 | 1761 ft | 204 kts | 283° |
| 2026-05-06 20:23 | 48.78069 | 4.14847 | 2792 ft | 225 kts | 285° |
| 2026-05-06 20:23 | 48.78435 | 4.12673 | 3211 ft | 207 kts | 290° |
| 2026-05-06 20:24 | 48.79195 | 4.10779 | 2718 ft | 214 kts | 322° |
| 2026-05-06 20:24 | 48.80483 | 4.09903 | 2751 ft | 197 kts | 355° |
| 2026-05-06 20:24 | 48.81801 | 4.10211 | 2622 ft | 192 kts | 29° |
| 2026-05-06 20:24 | 48.82827 | 4.11544 | 2080 ft | 209 kts | 52° |
| 2026-05-06 20:25 | 48.83527 | 4.13548 | 1915 ft | 202 kts | 71° |
| 2026-05-06 20:25 | 48.83646 | 4.15594 | 2008 ft | 195 kts | 98° |
| 2026-05-06 20:25 | 48.83298 | 4.17622 | 1814 ft | 203 kts | 104° |
| 2026-05-06 20:25 | 48.82889 | 4.19554 | 1969 ft | 177 kts | 108° |
| 2026-05-06 20:26 | 48.82492 | 4.21142 | 3085 ft | 169 kts | 110° |
| 2026-05-06 20:26 | 48.82059 | 4.22847 | 3476 ft | 181 kts | 109° |
| 2026-05-06 20:26 | 48.81644 | 4.24856 | 3509 ft | 210 kts | 105° |
| 2026-05-06 20:26 | 48.81270 | 4.26901 | 3303 ft | 194 kts | 104° |
| 2026-05-06 20:27 | 48.80924 | 4.28850 | 2883 ft | 193 kts | 104° |
| 2026-05-06 20:27 | 48.80494 | 4.30799 | 2325 ft | 199 kts | 117° |
| 2026-05-06 20:27 | 48.79455 | 4.32196 | 1740 ft | 207 kts | 156° |
| 2026-05-06 20:27 | 48.78059 | 4.32410 | 1346 ft | 196 kts | 186° |
| 2026-05-06 20:28 | 48.76782 | 4.32020 | 1165 ft | 177 kts | 199° |
| 2026-05-06 20:28 | 48.75809 | 4.31000 | 1576 ft | 179 kts | 239° |
| 2026-05-06 20:28 | 48.75911 | 4.29228 | 1778 ft | 179 kts | 300° |
| 2026-05-06 20:28 | 48.76413 | 4.27579 | 1788 ft | 160 kts | 292° |
| 2026-05-06 20:29 | 48.76657 | 4.25954 | 1310 ft | 153 kts | 282° |
| 2026-05-06 20:29 | 48.76813 | 4.24452 | 1100 ft | 136 kts | 279° |
| 2026-05-06 20:29 | 48.76994 | 4.23063 | 843 ft | 139 kts | 284° |
| 2026-05-06 20:29 | 48.77198 | 4.21643 | 722 ft | 137 kts | 282° |
| 2026-05-06 20:30 | 48.77377 | 4.20255 | 613 ft | 122 kts | 282° |
| 2026-05-06 20:30 | 48.77623 | 4.18407 | 601 ft | 43 kts | 282° |
| 2026-05-06 20:30 | 48.77643 | 4.18248 | 602 ft | 0 kts | 281° |
| 2026-05-06 20:31 | 48.77646 | 4.18230 | 602 ft | 8 kts | 282° |
| 2026-05-06 20:32 | 48.77681 | 4.17978 | 596 ft | 35 kts | 281° |
| 2026-05-06 20:32 | 48.77752 | 4.17510 | 589 ft | 60 kts | 280° |
| 2026-05-06 20:32 | 48.77795 | 4.17206 | 585 ft | 0 kts | 279° |
| 2026-05-06 20:33 | 48.77795 | 4.17207 | 585 ft | 0 kts | 279° |